Adams, Illinois
Current Conditions -  °F | °C
As of 12:54 AM on Thursday 18 Dec 2014 (Local Time) from KUIN Reporting Station
Few Clouds Few Clouds  
Wind Chill: 19°   Ceiling: Unl
Heat Index: 25°   Visibility: 10mi
Dew Point: 21°   Wind: 5mph
Humidity: 85%   Direction: 50°NE
Pressure: 30.28"   Gusts: NA
Location:  39.8875°N, 91.0352°W
Report Text: KUIN 180654Z AUTO 05004KT 10SM FEW095 M04/M06 A3028 RMK AO2 SLP262 T10391061
Loading
Personal Weather Stations






























Interactive Weather Map New forecast layout! Learn more

10-Day Weather Forecast

Advertisements
Track Severe Weather on mobile